sensor_id;sensor_type;location;lat;lon;timestamp;temperature;humidity
7427;DHT22;3755;59.316;18.092;2022-12-07T00:01:43;-3.50;99.90
7427;DHT22;3755;59.316;18.092;2022-12-07T00:04:13;-3.50;99.90
7427;DHT22;3755;59.316;18.092;2022-12-07T00:06:44;-3.50;99.90
7427;DHT22;3755;59.316;18.092;2022-12-07T00:09:13;-3.50;99.90
7427;DHT22;3755;59.316;18.092;2022-12-07T00:11:43;-3.60;99.90
7427;DHT22;3755;59.316;18.092;2022-12-07T00:14:18;-3.60;99.90
7427;DHT22;3755;59.316;18.092;2022-12-07T00:16:49;-3.60;99.90
7427;DHT22;3755;59.316;18.092;2022-12-07T00:19:18;-3.60;99.90
7427;DHT22;3755;59.316;18.092;2022-12-07T00:21:46;-3.60;99.90
7427;DHT22;3755;59.316;18.092;2022-12-07T00:24:13;-3.70;99.90
7427;DHT22;3755;59.316;18.092;2022-12-07T00:26:42;-3.60;99.90
7427;DHT22;3755;59.316;18.092;2022-12-07T00:29:15;-3.50;99.90
7427;DHT22;3755;59.316;18.092;2022-12-07T00:31:53;-3.80;99.90
7427;DHT22;3755;59.316;18.092;2022-12-07T00:34:25;-3.80;99.90
7427;DHT22;3755;59.316;18.092;2022-12-07T00:37:02;-3.80;99.90
7427;DHT22;3755;59.316;18.092;2022-12-07T00:39:33;-3.70;99.90
7427;DHT22;3755;59.316;18.092;2022-12-07T00:42:02;-3.70;99.90
7427;DHT22;3755;59.316;18.092;2022-12-07T00:44:30;-3.70;99.90
7427;DHT22;3755;59.316;18.092;2022-12-07T00:46:57;-3.70;99.90
7427;DHT22;3755;59.316;18.092;2022-12-07T00:49:24;-3.70;99.90
7427;DHT22;3755;59.316;18.092;2022-12-07T00:51:51;-3.80;99.90
7427;DHT22;3755;59.316;18.092;2022-12-07T00:54:19;-3.70;99.90
7427;DHT22;3755;59.316;18.092;2022-12-07T00:56:46;-3.30;99.90
7427;DHT22;3755;59.316;18.092;2022-12-07T00:59:15;-3.70;99.90
7427;DHT22;3755;59.316;18.092;2022-12-07T01:01:51;-3.10;99.90
7427;DHT22;3755;59.316;18.092;2022-12-07T01:04:19;-3.70;99.90
7427;DHT22;3755;59.316;18.092;2022-12-07T01:07:00;-3.40;99.90
7427;DHT22;3755;59.316;18.092;2022-12-07T01:09:28;-3.70;99.90
7427;DHT22;3755;59.316;18.092;2022-12-07T01:11:56;-3.70;99.90
7427;DHT22;3755;59.316;18.092;2022-12-07T01:14:25;-3.70;99.90
7427;DHT22;3755;59.316;18.092;2022-12-07T01:16:53;-3.70;99.90
7427;DHT22;3755;59.316;18.092;2022-12-07T01:19:20;-3.70;99.90
7427;DHT22;3755;59.316;18.092;2022-12-07T01:21:47;-3.60;99.90
7427;DHT22;3755;59.316;18.092;2022-12-07T01:24:15;-3.60;99.90
7427;DHT22;3755;59.316;18.092;2022-12-07T01:26:42;-3.60;99.90
7427;DHT22;3755;59.316;18.092;2022-12-07T01:29:09;-3.60;99.90
7427;DHT22;3755;59.316;18.092;2022-12-07T01:31:39;-3.60;99.90
7427;DHT22;3755;59.316;18.092;2022-12-07T01:34:08;-3.80;99.90
7427;DHT22;3755;59.316;18.092;2022-12-07T01:36:35;-3.60;99.90
7427;DHT22;3755;59.316;18.092;2022-12-07T01:39:05;-3.60;99.90
7427;DHT22;3755;59.316;18.092;2022-12-07T01:41:37;-3.60;99.90
7427;DHT22;3755;59.316;18.092;2022-12-07T01:44:18;-3.60;99.90
7427;DHT22;3755;59.316;18.092;2022-12-07T01:46:52;-3.70;99.90
7427;DHT22;3755;59.316;18.092;2022-12-07T01:49:37;-3.50;99.90
7427;DHT22;3755;59.316;18.092;2022-12-07T01:52:13;-3.60;99.90
7427;DHT22;3755;59.316;18.092;2022-12-07T01:54:58;-3.60;99.90
7427;DHT22;3755;59.316;18.092;2022-12-07T01:57:27;-3.60;99.90
7427;DHT22;3755;59.316;18.092;2022-12-07T01:59:55;-3.50;99.90
7427;DHT22;3755;59.316;18.092;2022-12-07T02:02:27;-3.40;99.90
7427;DHT22;3755;59.316;18.092;2022-12-07T02:04:57;-3.50;99.90
7427;DHT22;3755;59.316;18.092;2022-12-07T02:07:25;-3.50;99.90
7427;DHT22;3755;59.316;18.092;2022-12-07T02:09:53;-3.40;99.90
7427;DHT22;3755;59.316;18.092;2022-12-07T02:12:21;-3.50;99.90
7427;DHT22;3755;59.316;18.092;2022-12-07T02:14:49;-3.50;99.90
7427;DHT22;3755;59.316;18.092;2022-12-07T02:17:28;-3.50;99.90
7427;DHT22;3755;59.316;18.092;2022-12-07T02:20:13;-3.50;99.90
7427;DHT22;3755;59.316;18.092;2022-12-07T02:26:02;-3.60;99.90
7427;DHT22;3755;59.316;18.092;2022-12-07T02:28:56;-3.60;99.90
7427;DHT22;3755;59.316;18.092;2022-12-07T02:31:44;-3.60;99.90
7427;DHT22;3755;59.316;18.092;2022-12-07T02:34:35;-3.50;99.90
7427;DHT22;3755;59.316;18.092;2022-12-07T02:37:10;-3.60;99.90
7427;DHT22;3755;59.316;18.092;2022-12-07T02:39:44;-3.60;99.90
7427;DHT22;3755;59.316;18.092;2022-12-07T02:42:17;-3.70;99.90
7427;DHT22;3755;59.316;18.092;2022-12-07T02:44:47;-3.70;99.90
7427;DHT22;3755;59.316;18.092;2022-12-07T02:47:17;-3.70;99.90
7427;DHT22;3755;59.316;18.092;2022-12-07T02:49:47;-3.60;99.90
7427;DHT22;3755;59.316;18.092;2022-12-07T02:52:14;-3.60;99.90
7427;DHT22;3755;59.316;18.092;2022-12-07T02:54:42;-3.60;99.90
7427;DHT22;3755;59.316;18.092;2022-12-07T02:57:31;-3.70;99.90
7427;DHT22;3755;59.316;18.092;2022-12-07T03:00:05;-3.40;99.90
7427;DHT22;3755;59.316;18.092;2022-12-07T03:02:41;-3.60;99.90
7427;DHT22;3755;59.316;18.092;2022-12-07T03:05:25;-3.60;99.90
7427;DHT22;3755;59.316;18.092;2022-12-07T03:08:01;-3.50;99.90
7427;DHT22;3755;59.316;18.092;2022-12-07T03:10:38;-3.60;99.90
7427;DHT22;3755;59.316;18.092;2022-12-07T03:13:11;-3.60;99.90
7427;DHT22;3755;59.316;18.092;2022-12-07T03:15:46;-3.60;99.90
7427;DHT22;3755;59.316;18.092;2022-12-07T03:18:17;-3.60;99.90
7427;DHT22;3755;59.316;18.092;2022-12-07T03:20:47;-3.60;99.90
7427;DHT22;3755;59.316;18.092;2022-12-07T03:23:23;-3.60;99.90
7427;DHT22;3755;59.316;18.092;2022-12-07T03:25:55;-3.70;99.90
7427;DHT22;3755;59.316;18.092;2022-12-07T03:28:26;-3.60;99.90
7427;DHT22;3755;59.316;18.092;2022-12-07T03:30:58;-3.50;99.90
7427;DHT22;3755;59.316;18.092;2022-12-07T03:33:30;-3.70;99.90
7427;DHT22;3755;59.316;18.092;2022-12-07T03:36:06;-3.70;99.90
7427;DHT22;3755;59.316;18.092;2022-12-07T03:38:39;-3.70;99.90
7427;DHT22;3755;59.316;18.092;2022-12-07T03:41:09;-3.90;99.90
7427;DHT22;3755;59.316;18.092;2022-12-07T03:43:39;-3.80;99.90
7427;DHT22;3755;59.316;18.092;2022-12-07T03:46:17;-3.70;99.90
7427;DHT22;3755;59.316;18.092;2022-12-07T03:48:55;-3.80;99.90
7427;DHT22;3755;59.316;18.092;2022-12-07T03:51:26;-3.80;99.90
7427;DHT22;3755;59.316;18.092;2022-12-07T03:54:00;-3.90;99.90
7427;DHT22;3755;59.316;18.092;2022-12-07T03:56:33;-3.80;99.90
7427;DHT22;3755;59.316;18.092;2022-12-07T03:59:00;-3.90;99.90
7427;DHT22;3755;59.316;18.092;2022-12-07T04:01:28;-3.90;99.90
7427;DHT22;3755;59.316;18.092;2022-12-07T04:03:56;-3.90;99.90
7427;DHT22;3755;59.316;18.092;2022-12-07T04:06:23;-3.90;99.90
7427;DHT22;3755;59.316;18.092;2022-12-07T04:08:50;-3.90;99.90
7427;DHT22;3755;59.316;18.092;2022-12-07T04:11:17;-3.90;99.90
7427;DHT22;3755;59.316;18.092;2022-12-07T04:13:44;-3.90;99.90
7427;DHT22;3755;59.316;18.092;2022-12-07T04:16:30;-3.90;99.90
7427;DHT22;3755;59.316;18.092;2022-12-07T04:18:57;-3.70;99.90
7427;DHT22;3755;59.316;18.092;2022-12-07T04:21:24;-3.70;99.90
7427;DHT22;3755;59.316;18.092;2022-12-07T04:23:51;-3.80;99.90
7427;DHT22;3755;59.316;18.092;2022-12-07T04:26:18;-3.80;99.90
7427;DHT22;3755;59.316;18.092;2022-12-07T04:28:45;-3.90;99.90
7427;DHT22;3755;59.316;18.092;2022-12-07T04:31:14;-3.70;99.90
7427;DHT22;3755;59.316;18.092;2022-12-07T04:33:42;-3.70;99.90
7427;DHT22;3755;59.316;18.092;2022-12-07T04:36:09;-3.90;99.90
7427;DHT22;3755;59.316;18.092;2022-12-07T04:38:42;-3.80;99.90
7427;DHT22;3755;59.316;18.092;2022-12-07T04:41:09;-3.90;99.90
7427;DHT22;3755;59.316;18.092;2022-12-07T04:43:37;-4.00;99.90
7427;DHT22;3755;59.316;18.092;2022-12-07T04:46:05;-4.00;99.90
7427;DHT22;3755;59.316;18.092;2022-12-07T04:48:32;-4.00;99.90
7427;DHT22;3755;59.316;18.092;2022-12-07T04:51:02;-4.00;99.90
7427;DHT22;3755;59.316;18.092;2022-12-07T04:53:33;-4.00;99.90
7427;DHT22;3755;59.316;18.092;2022-12-07T04:56:02;-3.90;99.90
7427;DHT22;3755;59.316;18.092;2022-12-07T04:58:29;-4.10;99.90
7427;DHT22;3755;59.316;18.092;2022-12-07T05:00:56;-3.90;99.90
7427;DHT22;3755;59.316;18.092;2022-12-07T05:03:24;-3.90;99.90
7427;DHT22;3755;59.316;18.092;2022-12-07T05:05:51;-3.90;99.90
7427;DHT22;3755;59.316;18.092;2022-12-07T05:08:19;-3.90;99.90
7427;DHT22;3755;59.316;18.092;2022-12-07T05:10:48;-3.90;99.90
7427;DHT22;3755;59.316;18.092;2022-12-07T05:13:15;-3.80;99.90
7427;DHT22;3755;59.316;18.092;2022-12-07T05:15:42;-3.80;99.90
7427;DHT22;3755;59.316;18.092;2022-12-07T05:18:10;-4.10;99.90
7427;DHT22;3755;59.316;18.092;2022-12-07T05:20:39;-3.80;99.90
7427;DHT22;3755;59.316;18.092;2022-12-07T05:23:06;-3.80;99.90
7427;DHT22;3755;59.316;18.092;2022-12-07T05:25:34;-3.70;99.90
7427;DHT22;3755;59.316;18.092;2022-12-07T05:28:02;-3.60;99.90
7427;DHT22;3755;59.316;18.092;2022-12-07T05:30:29;-3.70;99.90
7427;DHT22;3755;59.316;18.092;2022-12-07T05:32:56;-3.60;99.90
7427;DHT22;3755;59.316;18.092;2022-12-07T05:35:23;-3.30;99.90
7427;DHT22;3755;59.316;18.092;2022-12-07T05:37:51;-3.50;99.90
7427;DHT22;3755;59.316;18.092;2022-12-07T05:40:19;-3.60;99.90
7427;DHT22;3755;59.316;18.092;2022-12-07T05:42:48;-3.50;99.90
7427;DHT22;3755;59.316;18.092;2022-12-07T05:45:15;-3.60;99.90
7427;DHT22;3755;59.316;18.092;2022-12-07T05:47:42;-3.60;99.90
7427;DHT22;3755;59.316;18.092;2022-12-07T05:50:10;-3.60;99.90
7427;DHT22;3755;59.316;18.092;2022-12-07T05:52:37;-3.70;99.90
7427;DHT22;3755;59.316;18.092;2022-12-07T05:55:17;-3.80;99.90
7427;DHT22;3755;59.316;18.092;2022-12-07T05:58:20;-3.80;99.90
7427;DHT22;3755;59.316;18.092;2022-12-07T06:01:06;-3.70;99.90
7427;DHT22;3755;59.316;18.092;2022-12-07T06:03:34;-3.80;99.90
7427;DHT22;3755;59.316;18.092;2022-12-07T06:06:02;-3.90;99.90
7427;DHT22;3755;59.316;18.092;2022-12-07T06:08:30;-3.80;99.90
7427;DHT22;3755;59.316;18.092;2022-12-07T06:10:58;-3.80;99.90
7427;DHT22;3755;59.316;18.092;2022-12-07T06:13:42;-3.80;99.90
7427;DHT22;3755;59.316;18.092;2022-12-07T06:16:15;-3.80;99.90
7427;DHT22;3755;59.316;18.092;2022-12-07T06:18:42;-3.80;99.90
7427;DHT22;3755;59.316;18.092;2022-12-07T06:21:23;-3.80;99.90
7427;DHT22;3755;59.316;18.092;2022-12-07T06:23:52;-3.80;99.90
7427;DHT22;3755;59.316;18.092;2022-12-07T06:26:20;-3.80;99.90
7427;DHT22;3755;59.316;18.092;2022-12-07T06:28:53;-3.80;99.90
7427;DHT22;3755;59.316;18.092;2022-12-07T06:31:35;-3.60;99.90
7427;DHT22;3755;59.316;18.092;2022-12-07T06:34:43;-3.90;99.90
7427;DHT22;3755;59.316;18.092;2022-12-07T06:37:24;-3.90;99.90
7427;DHT22;3755;59.316;18.092;2022-12-07T06:39:53;-3.90;99.90
7427;DHT22;3755;59.316;18.092;2022-12-07T06:42:22;-3.90;99.90
7427;DHT22;3755;59.316;18.092;2022-12-07T06:44:49;-3.90;99.90
7427;DHT22;3755;59.316;18.092;2022-12-07T06:47:19;-3.90;99.90
7427;DHT22;3755;59.316;18.092;2022-12-07T06:49:53;-3.90;99.90
7427;DHT22;3755;59.316;18.092;2022-12-07T06:52:22;-3.90;99.90
7427;DHT22;3755;59.316;18.092;2022-12-07T06:55:04;-3.80;99.90
7427;DHT22;3755;59.316;18.092;2022-12-07T06:57:46;-3.80;99.90
7427;DHT22;3755;59.316;18.092;2022-12-07T07:00:30;-3.80;99.90
7427;DHT22;3755;59.316;18.092;2022-12-07T07:03:11;-3.80;99.90
7427;DHT22;3755;59.316;18.092;2022-12-07T07:05:54;-3.80;99.90
7427;DHT22;3755;59.316;18.092;2022-12-07T07:08:31;-3.80;99.90
7427;DHT22;3755;59.316;18.092;2022-12-07T07:10:59;-3.90;99.90
7427;DHT22;3755;59.316;18.092;2022-12-07T07:13:40;-3.90;99.90
7427;DHT22;3755;59.316;18.092;2022-12-07T07:16:10;-3.90;99.90
7427;DHT22;3755;59.316;18.092;2022-12-07T07:18:44;-3.90;99.90
7427;DHT22;3755;59.316;18.092;2022-12-07T07:21:18;-3.90;99.90
7427;DHT22;3755;59.316;18.092;2022-12-07T07:23:59;-4.00;99.90
7427;DHT22;3755;59.316;18.092;2022-12-07T07:26:32;-4.00;99.90
7427;DHT22;3755;59.316;18.092;2022-12-07T07:29:16;-4.00;99.90
7427;DHT22;3755;59.316;18.092;2022-12-07T07:31:57;-3.90;99.90
7427;DHT22;3755;59.316;18.092;2022-12-07T07:34:26;-4.00;99.90
7427;DHT22;3755;59.316;18.092;2022-12-07T07:36:55;-4.00;99.90
7427;DHT22;3755;59.316;18.092;2022-12-07T07:39:36;-4.00;99.90
7427;DHT22;3755;59.316;18.092;2022-12-07T07:42:05;-4.10;99.90
7427;DHT22;3755;59.316;18.092;2022-12-07T07:44:35;-3.90;99.90
7427;DHT22;3755;59.316;18.092;2022-12-07T07:47:16;-4.10;99.90
7427;DHT22;3755;59.316;18.092;2022-12-07T07:49:46;-3.70;99.90
7427;DHT22;3755;59.316;18.092;2022-12-07T07:52:54;-4.10;99.90
7427;DHT22;3755;59.316;18.092;2022-12-07T07:55:29;-4.10;99.90
7427;DHT22;3755;59.316;18.092;2022-12-07T07:58:15;-4.10;99.90
7427;DHT22;3755;59.316;18.092;2022-12-07T08:00:43;-4.10;99.90
7427;DHT22;3755;59.316;18.092;2022-12-07T08:03:23;-3.60;99.90
7427;DHT22;3755;59.316;18.092;2022-12-07T08:06:05;-3.90;99.90
7427;DHT22;3755;59.316;18.092;2022-12-07T08:08:48;-4.00;99.90
7427;DHT22;3755;59.316;18.092;2022-12-07T08:11:29;-4.00;99.90
7427;DHT22;3755;59.316;18.092;2022-12-07T08:14:03;-4.00;99.90
7427;DHT22;3755;59.316;18.092;2022-12-07T08:16:44;-3.90;99.90
7427;DHT22;3755;59.316;18.092;2022-12-07T08:19:12;-4.00;99.90
7427;DHT22;3755;59.316;18.092;2022-12-07T08:21:40;-3.80;99.90
7427;DHT22;3755;59.316;18.092;2022-12-07T08:24:15;-3.80;99.90
7427;DHT22;3755;59.316;18.092;2022-12-07T08:26:57;-3.90;99.90
7427;DHT22;3755;59.316;18.092;2022-12-07T08:29:39;-3.80;99.90
7427;DHT22;3755;59.316;18.092;2022-12-07T08:32:08;-3.80;99.90
7427;DHT22;3755;59.316;18.092;2022-12-07T08:34:49;-3.60;99.90
7427;DHT22;3755;59.316;18.092;2022-12-07T08:37:17;-3.70;99.90
7427;DHT22;3755;59.316;18.092;2022-12-07T08:40:00;-3.10;99.90
7427;DHT22;3755;59.316;18.092;2022-12-07T08:42:48;-3.50;99.90
7427;DHT22;3755;59.316;18.092;2022-12-07T08:45:30;-3.80;99.90
7427;DHT22;3755;59.316;18.092;2022-12-07T08:48:06;-3.40;99.90
7427;DHT22;3755;59.316;18.092;2022-12-07T08:50:48;-3.70;99.90
7427;DHT22;3755;59.316;18.092;2022-12-07T08:53:15;-3.60;99.90
7427;DHT22;3755;59.316;18.092;2022-12-07T08:58:58;-3.60;99.90
7427;DHT22;3755;59.316;18.092;2022-12-07T09:01:39;-3.60;99.90
7427;DHT22;3755;59.316;18.092;2022-12-07T09:04:10;-3.60;99.90
7427;DHT22;3755;59.316;18.092;2022-12-07T09:06:55;-3.60;99.90
7427;DHT22;3755;59.316;18.092;2022-12-07T09:09:30;-3.50;99.90
7427;DHT22;3755;59.316;18.092;2022-12-07T09:12:15;-3.50;99.90
7427;DHT22;3755;59.316;18.092;2022-12-07T09:14:44;-3.10;99.90
7427;DHT22;3755;59.316;18.092;2022-12-07T09:17:38;-3.60;99.90
7427;DHT22;3755;59.316;18.092;2022-12-07T09:20:39;-3.40;99.90
7427;DHT22;3755;59.316;18.092;2022-12-07T09:23:08;-3.70;99.90
7427;DHT22;3755;59.316;18.092;2022-12-07T09:25:38;-3.70;99.90
7427;DHT22;3755;59.316;18.092;2022-12-07T09:28:20;-3.70;99.90
7427;DHT22;3755;59.316;18.092;2022-12-07T09:34:23;-3.60;99.90
7427;DHT22;3755;59.316;18.092;2022-12-07T09:37:09;-3.60;99.90
7427;DHT22;3755;59.316;18.092;2022-12-07T09:39:53;-3.60;99.90
7427;DHT22;3755;59.316;18.092;2022-12-07T09:42:37;-3.60;99.90
7427;DHT22;3755;59.316;18.092;2022-12-07T09:45:22;-3.60;99.90
7427;DHT22;3755;59.316;18.092;2022-12-07T09:48:08;-3.40;99.90
7427;DHT22;3755;59.316;18.092;2022-12-07T09:51:02;-3.50;99.90
7427;DHT22;3755;59.316;18.092;2022-12-07T09:53:45;-3.60;99.90
7427;DHT22;3755;59.316;18.092;2022-12-07T09:56:21;-3.40;99.90
7427;DHT22;3755;59.316;18.092;2022-12-07T09:59:04;-3.60;99.90
7427;DHT22;3755;59.316;18.092;2022-12-07T10:01:38;-3.50;99.90
7427;DHT22;3755;59.316;18.092;2022-12-07T10:04:11;-3.40;99.90
7427;DHT22;3755;59.316;18.092;2022-12-07T10:06:55;-2.60;99.90
7427;DHT22;3755;59.316;18.092;2022-12-07T10:09:35;-3.20;99.90
7427;DHT22;3755;59.316;18.092;2022-12-07T10:12:05;-3.20;99.90
7427;DHT22;3755;59.316;18.092;2022-12-07T10:14:54;-3.10;99.90
7427;DHT22;3755;59.316;18.092;2022-12-07T10:17:36;-2.80;99.90
7427;DHT22;3755;59.316;18.092;2022-12-07T10:20:15;-3.00;99.90
7427;DHT22;3755;59.316;18.092;2022-12-07T10:32:32;-2.90;99.90
7427;DHT22;3755;59.316;18.092;2022-12-07T10:35:24;-2.90;99.90
7427;DHT22;3755;59.316;18.092;2022-12-07T10:38:07;-2.90;99.90
7427;DHT22;3755;59.316;18.092;2022-12-07T10:41:06;-2.80;99.90
7427;DHT22;3755;59.316;18.092;2022-12-07T10:43:53;-2.80;99.90
7427;DHT22;3755;59.316;18.092;2022-12-07T10:49:43;-2.70;99.90
7427;DHT22;3755;59.316;18.092;2022-12-07T10:52:25;-2.80;99.90
7427;DHT22;3755;59.316;18.092;2022-12-07T10:55:08;-2.30;99.90
7427;DHT22;3755;59.316;18.092;2022-12-07T10:58:29;-3.00;99.90
7427;DHT22;3755;59.316;18.092;2022-12-07T11:01:17;-3.10;99.90
7427;DHT22;3755;59.316;18.092;2022-12-07T11:04:18;-3.20;99.90
7427;DHT22;3755;59.316;18.092;2022-12-07T11:07:17;-3.20;99.90
7427;DHT22;3755;59.316;18.092;2022-12-07T11:10:09;-3.20;99.90
7427;DHT22;3755;59.316;18.092;2022-12-07T11:13:09;-3.00;99.90
7427;DHT22;3755;59.316;18.092;2022-12-07T11:16:05;-3.10;99.90
7427;DHT22;3755;59.316;18.092;2022-12-07T11:19:04;-3.60;99.90
7427;DHT22;3755;59.316;18.092;2022-12-07T11:21:53;-3.00;99.90
7427;DHT22;3755;59.316;18.092;2022-12-07T11:24:56;-2.90;99.90
7427;DHT22;3755;59.316;18.092;2022-12-07T11:27:34;-2.70;99.90
7427;DHT22;3755;59.316;18.092;2022-12-07T11:30:19;-2.60;99.90
7427;DHT22;3755;59.316;18.092;2022-12-07T11:33:12;-2.90;99.90
7427;DHT22;3755;59.316;18.092;2022-12-07T11:36:04;-2.90;99.90
7427;DHT22;3755;59.316;18.092;2022-12-07T11:38:42;-2.80;99.90
7427;DHT22;3755;59.316;18.092;2022-12-07T11:41:32;-2.80;99.90
7427;DHT22;3755;59.316;18.092;2022-12-07T11:44:23;-2.80;99.90
7427;DHT22;3755;59.316;18.092;2022-12-07T11:47:22;-2.80;99.90
7427;DHT22;3755;59.316;18.092;2022-12-07T11:50:24;-2.80;99.90
7427;DHT22;3755;59.316;18.092;2022-12-07T11:52:58;-2.70;99.90
7427;DHT22;3755;59.316;18.092;2022-12-07T11:55:43;-2.70;99.90
7427;DHT22;3755;59.316;18.092;2022-12-07T12:05:02;-2.70;99.90
7427;DHT22;3755;59.316;18.092;2022-12-07T12:07:44;-2.70;99.90
7427;DHT22;3755;59.316;18.092;2022-12-07T12:10:18;-2.60;99.90
7427;DHT22;3755;59.316;18.092;2022-12-07T12:13:22;-2.70;99.90
7427;DHT22;3755;59.316;18.092;2022-12-07T12:19:40;-2.60;99.90
7427;DHT22;3755;59.316;18.092;2022-12-07T12:22:32;-2.60;99.90
7427;DHT22;3755;59.316;18.092;2022-12-07T12:25:21;-2.50;99.90
7427;DHT22;3755;59.316;18.092;2022-12-07T12:28:20;-2.30;99.90
7427;DHT22;3755;59.316;18.092;2022-12-07T12:31:07;-2.50;99.90
7427;DHT22;3755;59.316;18.092;2022-12-07T12:33:52;-2.50;99.90
7427;DHT22;3755;59.316;18.092;2022-12-07T12:36:45;-2.50;99.90
7427;DHT22;3755;59.316;18.092;2022-12-07T12:39:33;-2.50;99.90
7427;DHT22;3755;59.316;18.092;2022-12-07T12:42:18;-2.20;99.90
7427;DHT22;3755;59.316;18.092;2022-12-07T12:45:18;-2.60;99.90
7427;DHT22;3755;59.316;18.092;2022-12-07T12:50:51;-2.20;99.90
7427;DHT22;3755;59.316;18.092;2022-12-07T12:53:41;-2.60;99.90
7427;DHT22;3755;59.316;18.092;2022-12-07T12:56:37;-2.60;99.90
7427;DHT22;3755;59.316;18.092;2022-12-07T12:59:26;-2.70;99.90
7427;DHT22;3755;59.316;18.092;2022-12-07T13:02:22;-2.70;99.90
7427;DHT22;3755;59.316;18.092;2022-12-07T13:05:03;-2.70;99.90
7427;DHT22;3755;59.316;18.092;2022-12-07T13:07:58;-2.50;99.90
7427;DHT22;3755;59.316;18.092;2022-12-07T13:13:51;-2.70;99.90
7427;DHT22;3755;59.316;18.092;2022-12-07T13:16:52;-2.60;99.90
7427;DHT22;3755;59.316;18.092;2022-12-07T13:19:58;-2.60;99.90
7427;DHT22;3755;59.316;18.092;2022-12-07T13:22:52;-2.50;99.90
7427;DHT22;3755;59.316;18.092;2022-12-07T13:25:41;-2.50;99.90
7427;DHT22;3755;59.316;18.092;2022-12-07T13:28:27;-2.50;99.90
7427;DHT22;3755;59.316;18.092;2022-12-07T13:31:23;-2.50;99.90
7427;DHT22;3755;59.316;18.092;2022-12-07T13:33:55;-2.50;99.90
7427;DHT22;3755;59.316;18.092;2022-12-07T13:36:33;-2.30;99.90
7427;DHT22;3755;59.316;18.092;2022-12-07T13:39:16;-2.60;99.90
7427;DHT22;3755;59.316;18.092;2022-12-07T13:41:51;-2.60;99.90
7427;DHT22;3755;59.316;18.092;2022-12-07T13:44:34;-2.60;99.90
7427;DHT22;3755;59.316;18.092;2022-12-07T13:47:07;-2.40;99.90
7427;DHT22;3755;59.316;18.092;2022-12-07T13:50:25;-2.60;99.90
7427;DHT22;3755;59.316;18.092;2022-12-07T13:52:58;-2.50;99.90
7427;DHT22;3755;59.316;18.092;2022-12-07T13:55:27;-2.70;99.90
7427;DHT22;3755;59.316;18.092;2022-12-07T13:58:09;-2.70;99.90
7427;DHT22;3755;59.316;18.092;2022-12-07T14:00:39;-2.70;99.90
7427;DHT22;3755;59.316;18.092;2022-12-07T14:03:27;-2.70;99.90
7427;DHT22;3755;59.316;18.092;2022-12-07T14:06:22;-2.80;99.90
7427;DHT22;3755;59.316;18.092;2022-12-07T14:09:15;-2.80;99.90
7427;DHT22;3755;59.316;18.092;2022-12-07T14:11:59;-2.90;99.90
7427;DHT22;3755;59.316;18.092;2022-12-07T14:14:48;-3.00;99.90
7427;DHT22;3755;59.316;18.092;2022-12-07T14:17:52;-3.00;99.90
7427;DHT22;3755;59.316;18.092;2022-12-07T14:20:39;-3.00;99.90
7427;DHT22;3755;59.316;18.092;2022-12-07T14:23:25;-3.10;99.90
7427;DHT22;3755;59.316;18.092;2022-12-07T14:25:54;-3.10;99.90
7427;DHT22;3755;59.316;18.092;2022-12-07T14:28:32;-3.20;99.90
7427;DHT22;3755;59.316;18.092;2022-12-07T14:31:01;-3.20;99.90
7427;DHT22;3755;59.316;18.092;2022-12-07T14:33:31;-2.90;99.90
7427;DHT22;3755;59.316;18.092;2022-12-07T14:35:58;-3.40;99.90
7427;DHT22;3755;59.316;18.092;2022-12-07T14:38:30;-3.40;99.90
7427;DHT22;3755;59.316;18.092;2022-12-07T14:41:14;-3.40;99.90
7427;DHT22;3755;59.316;18.092;2022-12-07T14:44:09;-3.50;99.90
7427;DHT22;3755;59.316;18.092;2022-12-07T14:46:39;-3.50;99.90
7427;DHT22;3755;59.316;18.092;2022-12-07T14:49:11;-3.50;99.90
7427;DHT22;3755;59.316;18.092;2022-12-07T14:51:52;-3.60;99.90
7427;DHT22;3755;59.316;18.092;2022-12-07T14:54:26;-3.60;99.90
7427;DHT22;3755;59.316;18.092;2022-12-07T14:57:02;-3.60;99.90
7427;DHT22;3755;59.316;18.092;2022-12-07T14:59:32;-3.60;99.90
7427;DHT22;3755;59.316;18.092;2022-12-07T15:02:00;-3.60;99.90
7427;DHT22;3755;59.316;18.092;2022-12-07T15:04:28;-3.50;99.90
7427;DHT22;3755;59.316;18.092;2022-12-07T15:06:57;-3.60;99.90
7427;DHT22;3755;59.316;18.092;2022-12-07T15:09:26;-3.50;99.90
7427;DHT22;3755;59.316;18.092;2022-12-07T15:12:00;-3.60;99.90
7427;DHT22;3755;59.316;18.092;2022-12-07T15:14:28;-3.60;99.90
7427;DHT22;3755;59.316;18.092;2022-12-07T15:16:55;-3.60;99.90
7427;DHT22;3755;59.316;18.092;2022-12-07T15:19:38;-3.50;99.90
7427;DHT22;3755;59.316;18.092;2022-12-07T15:22:07;-3.60;99.90
7427;DHT22;3755;59.316;18.092;2022-12-07T15:24:39;-3.60;99.90
7427;DHT22;3755;59.316;18.092;2022-12-07T15:27:23;-3.60;99.90
7427;DHT22;3755;59.316;18.092;2022-12-07T15:30:16;-3.60;99.90
7427;DHT22;3755;59.316;18.092;2022-12-07T15:32:57;-3.70;99.90
7427;DHT22;3755;59.316;18.092;2022-12-07T15:35:30;-3.40;99.90
7427;DHT22;3755;59.316;18.092;2022-12-07T15:37:57;-3.40;99.90
7427;DHT22;3755;59.316;18.092;2022-12-07T15:40:40;-3.60;99.90
7427;DHT22;3755;59.316;18.092;2022-12-07T15:43:22;-3.60;99.90
7427;DHT22;3755;59.316;18.092;2022-12-07T15:46:07;-3.70;99.90
7427;DHT22;3755;59.316;18.092;2022-12-07T15:48:40;-3.60;99.90
7427;DHT22;3755;59.316;18.092;2022-12-07T15:51:08;-3.60;99.90
7427;DHT22;3755;59.316;18.092;2022-12-07T15:53:58;-3.60;99.90
7427;DHT22;3755;59.316;18.092;2022-12-07T15:56:29;-3.60;99.90
7427;DHT22;3755;59.316;18.092;2022-12-07T15:59:09;-3.70;99.90
7427;DHT22;3755;59.316;18.092;2022-12-07T16:01:38;-3.70;99.90
7427;DHT22;3755;59.316;18.092;2022-12-07T16:04:20;-3.60;99.90
7427;DHT22;3755;59.316;18.092;2022-12-07T16:06:48;-4.80;99.90
7427;DHT22;3755;59.316;18.092;2022-12-07T16:09:21;-3.70;99.90
7427;DHT22;3755;59.316;18.092;2022-12-07T16:11:50;-3.70;99.90
7427;DHT22;3755;59.316;18.092;2022-12-07T16:14:34;-3.80;99.90
7427;DHT22;3755;59.316;18.092;2022-12-07T16:17:04;-3.60;99.90
7427;DHT22;3755;59.316;18.092;2022-12-07T16:19:47;-3.80;99.90
7427;DHT22;3755;59.316;18.092;2022-12-07T16:22:28;-4.10;99.90
7427;DHT22;3755;59.316;18.092;2022-12-07T16:25:10;-3.10;99.90
7427;DHT22;3755;59.316;18.092;2022-12-07T16:28:16;-4.10;99.90
7427;DHT22;3755;59.316;18.092;2022-12-07T16:31:01;-4.00;99.90
7427;DHT22;3755;59.316;18.092;2022-12-07T16:33:43;-4.00;99.90
7427;DHT22;3755;59.316;18.092;2022-12-07T16:36:31;-4.10;99.90
7427;DHT22;3755;59.316;18.092;2022-12-07T16:38:58;-4.10;99.90
7427;DHT22;3755;59.316;18.092;2022-12-07T16:41:39;-4.10;99.90
7427;DHT22;3755;59.316;18.092;2022-12-07T16:47:22;-4.20;99.90
7427;DHT22;3755;59.316;18.092;2022-12-07T16:50:20;-3.40;99.90
7427;DHT22;3755;59.316;18.092;2022-12-07T16:52:57;-3.60;99.90
7427;DHT22;3755;59.316;18.092;2022-12-07T16:55:24;-4.10;99.90
7427;DHT22;3755;59.316;18.092;2022-12-07T16:58:05;-4.10;99.90
7427;DHT22;3755;59.316;18.092;2022-12-07T17:00:33;-4.10;99.90
7427;DHT22;3755;59.316;18.092;2022-12-07T17:03:22;-4.10;99.90
7427;DHT22;3755;59.316;18.092;2022-12-07T17:06:13;-4.20;99.90
7427;DHT22;3755;59.316;18.092;2022-12-07T17:08:42;-3.60;99.90
7427;DHT22;3755;59.316;18.092;2022-12-07T17:11:18;-4.10;99.90
7427;DHT22;3755;59.316;18.092;2022-12-07T17:13:59;-4.10;99.90
7427;DHT22;3755;59.316;18.092;2022-12-07T17:16:50;-4.20;99.90
7427;DHT22;3755;59.316;18.092;2022-12-07T17:22:30;-4.20;99.90
7427;DHT22;3755;59.316;18.092;2022-12-07T17:25:11;-4.20;99.90
7427;DHT22;3755;59.316;18.092;2022-12-07T17:30:33;-4.10;99.90
7427;DHT22;3755;59.316;18.092;2022-12-07T17:33:00;-4.20;99.90
7427;DHT22;3755;59.316;18.092;2022-12-07T17:35:28;-4.20;99.90
7427;DHT22;3755;59.316;18.092;2022-12-07T17:38:02;-4.10;99.90